Αρχική σελίδα
METAR-TAF:

METAR-TAF

Αεροδρόμια :

Cachimbo, Παρά, Βραζιλία

γεωγραφικό πλάτος: 09-20S, γεωγραφικό μήκος: 054-57W, υψόμετρο: 536 μ

Παρών καιρός

Η αναφορά έγινε 27 λεπτά πριν, στις 18:00 UTC
Άνεμος 8 kt από Α/BA, μεταβλητός μεταξύ BA και Α
Θερμοκρασία 31°C
Υγρασία 43%
Πίεση 1013 hPa
Ορατότητα 10 χλμ και άνω
Διάσπαρτα νέφη σε ύψος 4400 πόδια

METAR: SBCC 201800Z 07008KT 040V100 9999 SCT044 31/17 Q1013

Χρόνος: 15:27 (18:27 UTC)


TAF: λείπει

Μετεωρολογικές αναφορές και προγνώσεις για περισσότερα από 4000 αεροδρόμια (δελτία METAR και TAF).

Οι διαθέσιμοι σταθμοί απεικονίζονται στο χάρτη με κίτρινες και κόκκινες κουκκίδες.

Μετακινήστε το ποντίκι πάνω από τις κουκκίδες για να δείτε το όνομα του σταθμού.

Στη συνέχεια, κάντε κλικ για να δείτε τις μετεωρολογικές αναφορές και τις προγνώσεις καιρού.

Για να αλλάξετε το χάρτη: κάντε κλικ στα πράσινα κουμπιά με τον μαύρο σταυρό για να ζουμάρετε, στο πράσινο κουμπί με την παύλα για να αφαιρέσετε το ζουμ ή στα πράσινα βέλη για να αντιπαραβάλλετε χάρτες.


METAR-TAF: